createdAt,value
2023-01-02T21:33:27.136Z,9.90
2023-01-02T21:36:18.518Z,9.91
2023-01-02T21:39:05.417Z,9.78
2023-01-02T21:42:09.355Z,9.76
2023-01-02T21:44:57.144Z,9.84
2023-01-02T21:47:59.512Z,9.80
2023-01-02T21:50:48.578Z,9.66
2023-01-02T21:53:35.602Z,9.69
2023-01-02T21:56:24.499Z,9.65
2023-01-02T21:59:11.118Z,9.63
2023-01-02T22:01:59.983Z,9.64
2023-01-02T22:04:50.174Z,9.67
2023-01-02T22:07:43.877Z,9.60
2023-01-02T22:10:35.351Z,9.59
2023-01-02T22:13:23.556Z,9.44
2023-01-02T22:16:15.739Z,9.36
2023-01-02T22:19:02.771Z,9.54
2023-01-02T22:21:50.359Z,9.42
2023-01-02T22:24:44.676Z,9.46
2023-01-02T22:27:35.602Z,9.49
2023-01-02T22:30:29.403Z,9.49
2023-01-02T22:33:22.599Z,9.38
2023-01-02T22:36:12.558Z,9.37
2023-01-02T22:39:27.010Z,9.40
2023-01-02T22:43:02.917Z,9.38
2023-01-02T22:45:55.121Z,9.35
2023-01-02T22:48:45.509Z,9.39
2023-01-02T22:52:05.894Z,9.37
2023-01-02T22:54:46.020Z,9.28
2023-01-02T22:57:36.311Z,9.32
2023-01-02T23:00:30.935Z,9.26
2023-01-02T23:03:21.449Z,9.22
2023-01-02T23:06:08.347Z,9.24
2023-01-02T23:08:59.971Z,9.40
2023-01-02T23:11:49.614Z,9.43
2023-01-02T23:14:37.977Z,9.44
2023-01-02T23:17:52.632Z,9.42
2023-01-02T23:20:40.913Z,9.33
2023-01-02T23:23:32.850Z,9.18
2023-01-02T23:26:29.054Z,9.11
2023-01-02T23:29:16.632Z,9.30
2023-01-02T23:32:21.327Z,9.37
2023-01-02T23:35:09.740Z,9.35
2023-01-02T23:37:56.229Z,9.23
2023-01-02T23:40:45.325Z,9.34
2023-01-02T23:43:34.336Z,9.31
2023-01-02T23:46:21.430Z,9.34
2023-01-02T23:49:11.256Z,9.39
2023-01-02T23:51:58.158Z,9.41
2023-01-02T23:54:45.263Z,9.31
2023-01-02T23:57:36.653Z,9.35
